Time;durP1;ratioP1;P1;durP2;ratioP2;P2;SDS_P1;SDS_P2;PMS_P1;PMS_P2;Temp;Humidity;BMP_temperature;BMP_pressure;BME280_temperature;BME280_humidity;BME280_pressure;Samples;Min_cycle;Max_cycle;Signal;HPM_P1;HPM_P2
2022/01/01 00:00:51;;;;;;;16.60;13.90;;;15.20;74.80;;;-142.21;100.00;112049.66;5112261;28;20425;-78
2022/01/01 00:03:18;;;;;;;15.43;13.93;;;15.20;75.00;;;-142.21;100.00;112049.66;5114782;28;20536;-78
2022/01/01 00:05:45;;;;;;;17.13;15.33;;;15.20;75.00;;;-142.21;100.00;112049.66;5116615;28;20612;-79
2022/01/01 00:08:16;;;;;;;17.83;16.03;;;15.10;75.00;;;-142.21;100.00;112049.66;5115557;28;20478;-78
2022/01/01 00:10:43;;;;;;;17.03;15.17;;;15.10;75.00;;;-142.21;100.00;112049.66;5098089;28;20500;-78
2022/01/01 00:13:10;;;;;;;17.60;15.80;;;15.10;75.00;;;-142.21;100.00;112049.66;5112080;28;20506;-77
2022/01/01 00:15:37;;;;;;;18.83;16.87;;;15.10;74.90;;;-142.21;100.00;112049.66;5116375;28;20441;-79
2022/01/01 00:18:04;;;;;;;19.03;15.97;;;15.10;75.70;;;-142.21;100.00;112049.66;5116283;28;20501;-79
2022/01/01 00:20:32;;;;;;;21.53;18.13;;;15.10;75.20;;;-142.21;100.00;112049.66;5115287;28;20469;-79
2022/01/01 00:22:59;;;;;;;21.53;19.33;;;15.10;75.10;;;-142.21;100.00;112049.66;5115823;28;20484;-79
2022/01/01 00:25:28;;;;;;;23.60;20.33;;;15.00;75.20;;;-142.21;100.00;112049.66;5115394;28;21031;-79
2022/01/01 00:27:55;;;;;;;20.93;18.83;;;14.90;75.60;;;-142.21;100.00;112049.66;5115479;28;20452;-79
2022/01/01 00:30:22;;;;;;;21.27;18.97;;;14.90;75.70;;;-142.21;100.00;112049.66;5115731;28;20537;-79
2022/01/01 00:32:49;;;;;;;23.03;20.53;;;14.90;75.90;;;-142.21;100.00;112049.66;5115816;28;20481;-78
2022/01/01 00:35:16;;;;;;;24.00;21.43;;;14.90;75.80;;;-142.21;100.00;112049.66;5116072;28;20492;-79
2022/01/01 00:37:44;;;;;;;25.67;22.60;;;15.00;75.70;;;-142.21;100.00;112049.66;5115139;28;20520;-80
2022/01/01 00:40:12;;;;;;;24.83;22.37;;;14.90;75.90;;;-142.21;100.00;112049.66;5115933;28;20533;-79
2022/01/01 00:42:41;;;;;;;25.50;22.93;;;14.80;76.40;;;-142.21;100.00;112049.66;5114920;28;20529;-79
2022/01/01 00:45:09;;;;;;;25.63;21.63;;;14.80;76.40;;;-142.21;100.00;112049.66;5095732;28;20916;-79
2022/01/01 00:47:36;;;;;;;23.20;20.33;;;14.80;77.20;;;-142.21;100.00;112049.66;5076839;28;20545;-79
2022/01/01 00:50:04;;;;;;;21.33;19.13;;;14.60;77.30;;;-142.21;100.00;112049.66;5095049;28;20481;-78
2022/01/01 00:52:31;;;;;;;20.60;18.40;;;14.50;78.10;;;-142.21;100.00;112049.66;5095331;28;20446;-79
2022/01/01 00:54:58;;;;;;;22.80;19.73;;;14.50;78.40;;;-142.21;100.00;112049.66;5094410;28;20903;-78
2022/01/01 00:57:25;;;;;;;22.07;19.83;;;14.60;78.50;;;-142.21;100.00;112049.66;5094490;28;20990;-79
2022/01/01 00:59:54;;;;;;;22.13;19.73;;;14.60;78.60;;;-142.21;100.00;112049.66;5094205;28;20489;-79
2022/01/01 01:02:21;;;;;;;22.63;20.27;;;14.60;78.80;;;-142.21;100.00;112049.66;5080228;28;20538;-79
2022/01/01 01:04:48;;;;;;;20.67;17.47;;;14.50;79.00;;;-142.21;100.00;112049.66;5094667;28;20810;-79
2022/01/01 01:07:17;;;;;;;21.83;19.50;;;14.50;79.10;;;-142.21;100.00;112049.66;5094868;28;20517;-79
2022/01/01 01:09:45;;;;;;;21.17;18.97;;;14.40;79.40;;;-142.21;100.00;112049.66;5095235;28;20978;-75
2022/01/01 01:12:12;;;;;;;20.77;18.67;;;14.40;79.70;;;-142.21;100.00;112049.66;5094182;28;20606;-75
2022/01/01 01:14:41;;;;;;;20.50;18.30;;;14.30;79.80;;;-142.21;100.00;112049.66;5094395;28;20465;-78
2022/01/01 01:17:10;;;;;;;18.43;16.57;;;14.20;80.00;;;-142.21;100.00;112049.66;5094559;28;21015;-78
2022/01/01 01:19:38;;;;;;;20.17;17.90;;;14.20;80.10;;;-142.21;100.00;112049.66;5094885;28;20817;-78
2022/01/01 01:22:06;;;;;;;19.40;17.13;;;14.20;80.50;;;-142.21;100.00;112049.66;5094681;28;20466;-78
2022/01/01 01:24:34;;;;;;;20.43;18.00;;;14.10;81.30;;;-142.21;100.00;112049.66;5094442;28;20458;-78
2022/01/01 01:27:03;;;;;;;18.40;16.40;;;14.10;81.70;;;-142.21;100.00;112049.66;5094293;28;20573;-78
2022/01/01 01:29:32;;;;;;;18.37;16.00;;;14.10;81.50;;;-142.21;100.00;112049.66;5095067;28;20893;-80
2022/01/01 01:32:00;;;;;;;18.80;16.37;;;14.10;81.40;;;-142.21;100.00;112049.66;5094724;28;20447;-78
2022/01/01 01:34:28;;;;;;;17.17;15.37;;;14.00;81.50;;;-142.21;100.00;112049.66;5093744;28;20470;-78
2022/01/01 01:36:55;;;;;;;17.80;15.43;;;14.00;82.70;;;-142.21;100.00;112049.66;5093906;28;20968;-79
2022/01/01 01:39:23;;;;;;;16.37;13.50;;;14.10;81.60;;;-142.21;100.00;112049.66;5093085;28;20450;-78
2022/01/01 01:41:52;;;;;;;16.33;14.27;;;14.10;82.20;;;-142.21;100.00;112049.66;5093932;28;20942;-78
2022/01/01 01:44:29;;;;;;;15.07;12.53;;;14.00;82.20;;;-142.21;100.00;112049.66;5105688;28;20540;-78
2022/01/01 01:47:37;;;;;;;14.03;12.43;;;14.10;82.60;;;-142.21;100.00;112049.66;5094254;28;20527;-78
2022/01/01 01:50:10;;;;;;;12.60;11.27;;;14.20;81.60;;;-142.21;100.00;112049.66;5084693;28;20455;-78
2022/01/01 01:52:40;;;;;;;11.57;10.20;;;14.20;81.80;;;-142.21;100.00;112049.66;5093212;28;20990;-79
2022/01/01 01:55:11;;;;;;;13.20;11.07;;;14.30;81.50;;;-142.21;100.00;112049.66;5093166;28;20478;-79
2022/01/01 01:57:41;;;;;;;11.83;10.30;;;14.30;81.70;;;-142.21;100.00;112049.66;5093560;28;20462;-79
2022/01/01 02:00:25;;;;;;;12.20;11.00;;;14.30;81.60;;;-142.21;100.00;112049.66;5093846;28;20494;-77
2022/01/01 02:02:52;;;;;;;11.70;10.50;;;14.30;81.60;;;-142.21;100.00;112049.66;5095521;28;20466;-77
2022/01/01 02:05:21;;;;;;;12.93;10.43;;;14.30;81.00;;;-142.21;100.00;112049.66;5110215;28;20465;-78
2022/01/01 02:07:50;;;;;;;12.77;11.47;;;14.30;81.00;;;-142.21;100.00;112049.66;5113232;28;20445;-77
2022/01/01 02:10:24;;;;;;;11.90;10.63;;;14.30;81.70;;;-142.21;100.00;112049.66;5113378;28;20472;-78
2022/01/01 02:12:54;;;;;;;13.80;11.83;;;14.30;81.60;;;-142.21;100.00;112049.66;5113048;28;20456;-79
2022/01/01 02:15:42;;;;;;;11.60;9.90;;;14.30;81.30;;;-142.21;100.00;112049.66;5113624;28;20957;-78
2022/01/01 02:18:09;;;;;;;12.27;10.43;;;14.30;81.70;;;-142.21;100.00;112049.66;5112013;28;20507;-79
2022/01/01 02:20:38;;;;;;;11.83;10.57;;;14.30;81.40;;;-142.21;100.00;112049.66;5096288;28;20582;-79
2022/01/01 02:23:06;;;;;;;12.80;10.90;;;14.20;81.40;;;-142.21;100.00;112049.66;5112711;28;20441;-79
2022/01/01 02:25:34;;;;;;;12.63;10.07;;;14.20;81.40;;;-142.21;100.00;112049.66;5112502;28;20442;-79
2022/01/01 02:28:01;;;;;;;11.47;10.37;;;14.20;81.60;;;-142.21;100.00;112049.66;5113213;28;20511;-79
2022/01/01 02:30:28;;;;;;;11.87;10.43;;;14.30;81.40;;;-142.21;100.00;112049.66;5113522;28;20477;-79
2022/01/01 02:32:58;;;;;;;12.50;11.17;;;14.30;81.20;;;-142.21;100.00;112049.66;5112605;28;20793;-79
2022/01/01 02:35:26;;;;;;;12.93;10.90;;;14.20;81.20;;;-142.21;100.00;112049.66;5113417;28;20995;-78
2022/01/01 02:37:54;;;;;;;13.17;10.53;;;14.10;81.50;;;-142.21;100.00;112049.66;5112708;28;20517;-78
2022/01/01 02:40:22;;;;;;;12.07;10.77;;;14.20;81.20;;;-142.21;100.00;112049.66;5113586;28;20445;-78
2022/01/01 02:42:51;;;;;;;11.13;10.03;;;14.20;81.20;;;-142.21;100.00;112049.66;5113238;28;20858;-78
2022/01/01 02:45:18;;;;;;;11.60;10.33;;;14.10;81.50;;;-142.21;100.00;112049.66;5092538;28;20458;-78
2022/01/01 02:47:45;;;;;;;13.63;11.67;;;14.10;82.00;;;-142.21;100.00;112049.66;5092628;28;20557;-77
2022/01/01 02:50:13;;;;;;;13.83;10.63;;;14.10;81.60;;;-142.21;100.00;112049.66;5092100;28;20481;-77
2022/01/01 02:52:41;;;;;;;13.60;12.20;;;14.00;82.10;;;-142.21;100.00;112049.66;5092752;28;20466;-78
2022/01/01 02:55:11;;;;;;;13.23;11.57;;;14.00;82.20;;;-142.21;100.00;112049.66;5078137;28;20462;-77
2022/01/01 02:57:38;;;;;;;13.93;11.47;;;14.00;82.20;;;-142.21;100.00;112049.66;5072941;28;20464;-77
2022/01/01 03:00:07;;;;;;;13.37;11.67;;;14.00;81.90;;;-142.21;100.00;112049.66;5072495;28;20486;-77
2022/01/01 03:02:34;;;;;;;12.83;10.90;;;14.00;82.30;;;-142.21;100.00;112049.66;5072226;28;20490;-77
2022/01/01 03:05:01;;;;;;;17.57;13.40;;;13.90;81.90;;;-142.21;100.00;112049.66;5072084;28;20522;-78
2022/01/01 03:07:29;;;;;;;14.37;12.87;;;13.90;82.00;;;-142.21;100.00;112049.66;5071758;28;20487;-78
2022/01/01 03:09:56;;;;;;;19.10;15.67;;;13.80;82.00;;;-142.21;100.00;112049.66;5072240;28;21022;-78
2022/01/01 03:12:24;;;;;;;19.53;14.37;;;13.80;82.00;;;-142.21;100.00;112049.66;5071580;28;20534;-78
2022/01/01 03:14:52;;;;;;;14.97;13.27;;;13.80;81.90;;;-142.21;100.00;112049.66;5072272;28;20931;-78
2022/01/01 03:17:19;;;;;;;13.53;12.07;;;13.90;81.60;;;-142.21;100.00;112049.66;5081826;28;20938;-78
2022/01/01 03:19:46;;;;;;;13.50;11.87;;;13.90;81.50;;;-142.21;100.00;112049.66;5092255;28;20776;-78
2022/01/01 03:22:13;;;;;;;14.77;13.20;;;13.90;81.30;;;-142.21;100.00;112049.66;5092770;28;20542;-78
2022/01/01 03:24:41;;;;;;;13.50;12.07;;;13.90;81.30;;;-142.21;100.00;112049.66;5091715;28;20530;-78
2022/01/01 03:27:08;;;;;;;15.33;12.77;;;13.80;81.30;;;-142.21;100.00;112049.66;5092208;28;20518;-78
2022/01/01 03:29:38;;;;;;;14.50;12.97;;;13.80;81.60;;;-142.21;100.00;112049.66;5091783;28;20496;-78
2022/01/01 03:32:07;;;;;;;15.97;12.97;;;13.80;81.60;;;-142.21;100.00;112049.66;5092437;28;20450;-77
2022/01/01 03:34:34;;;;;;;17.53;13.93;;;13.70;81.70;;;-142.21;100.00;112049.66;5091594;28;20488;-80
2022/01/01 03:37:02;;;;;;;20.60;17.47;;;13.80;81.50;;;-142.21;100.00;112049.66;5094985;28;20525;-78
2022/01/01 03:39:29;;;;;;;14.67;13.13;;;13.80;81.10;;;-142.21;100.00;112049.66;5096808;28;20518;-78
2022/01/01 03:41:56;;;;;;;16.43;14.10;;;13.90;80.80;;;-142.21;100.00;112049.66;5096021;28;20474;-78
2022/01/01 03:44:24;;;;;;;18.50;15.30;;;13.90;80.20;;;-142.21;100.00;112049.66;5109531;28;20477;-77
2022/01/01 03:46:54;;;;;;;15.10;13.17;;;14.00;80.10;;;-142.21;100.00;112049.66;5115876;28;20527;-78
2022/01/01 03:49:22;;;;;;;25.80;18.63;;;13.90;80.20;;;-142.21;100.00;112049.66;5116589;28;20533;-77
2022/01/01 03:51:49;;;;;;;21.17;17.47;;;13.80;80.20;;;-142.21;100.00;112049.66;5115921;28;20434;-77
2022/01/01 03:54:16;;;;;;;18.97;15.93;;;13.70;80.30;;;-142.21;100.00;112049.66;5116670;28;20466;-77
2022/01/01 03:56:44;;;;;;;21.80;17.53;;;13.80;80.20;;;-142.21;100.00;112049.66;5116684;28;20448;-77
2022/01/01 03:59:11;;;;;;;16.30;13.67;;;13.80;80.10;;;-142.21;100.00;112049.66;5115731;28;20556;-77
2022/01/01 04:01:38;;;;;;;19.23;15.80;;;13.80;79.90;;;-142.21;100.00;112049.66;5116518;28;20482;-77
2022/01/01 04:04:07;;;;;;;16.10;12.80;;;13.80;79.60;;;-142.21;100.00;112049.66;5115344;28;20437;-77
2022/01/01 04:06:34;;;;;;;15.00;13.27;;;13.90;79.50;;;-142.21;100.00;112049.66;5116147;28;20569;-78
2022/01/01 04:09:01;;;;;;;14.27;12.47;;;13.90;79.40;;;-142.21;100.00;112049.66;5114366;28;20548;-77
2022/01/01 04:11:29;;;;;;;16.30;13.47;;;13.90;79.00;;;-142.21;100.00;112049.66;5115157;28;20937;-76
2022/01/01 04:13:56;;;;;;;17.90;14.30;;;13.90;78.60;;;-142.21;100.00;112049.66;5114050;28;20489;-78
2022/01/01 04:16:23;;;;;;;16.33;14.07;;;13.80;78.50;;;-142.21;100.00;112049.66;5102637;28;20488;-78
2022/01/01 04:18:51;;;;;;;18.13;14.07;;;13.70;78.40;;;-142.21;100.00;112049.66;5115252;28;20477;-78
2022/01/01 04:21:19;;;;;;;16.13;13.93;;;13.70;78.70;;;-142.21;100.00;112049.66;5114729;28;20476;-78
2022/01/01 04:23:47;;;;;;;15.70;13.63;;;13.70;78.60;;;-142.21;100.00;112049.66;5115587;28;20510;-78
2022/01/01 04:26:14;;;;;;;15.07;13.20;;;13.70;78.20;;;-142.21;100.00;112049.66;5114504;28;20977;-78
2022/01/01 04:28:42;;;;;;;17.60;13.13;;;13.70;77.70;;;-142.21;100.00;112049.66;5115318;28;20862;-78
2022/01/01 04:31:10;;;;;;;13.67;11.67;;;13.70;77.50;;;-142.21;100.00;112049.66;5118825;27;20449;-78
2022/01/01 04:33:37;;;;;;;16.53;13.30;;;13.70;77.50;;;-142.21;100.00;112049.66;5116968;27;20832;-77
2022/01/01 04:36:05;;;;;;;14.00;12.53;;;13.70;77.20;;;-142.21;100.00;112049.66;5114616;28;20445;-78
2022/01/01 04:38:38;;;;;;;17.40;13.83;;;13.70;77.30;;;-142.21;100.00;112049.66;5114457;28;20446;-78
2022/01/01 04:41:06;;;;;;;15.33;13.10;;;13.60;77.20;;;-142.21;100.00;112049.66;5115382;28;20441;-78
2022/01/01 04:43:34;;;;;;;15.33;12.83;;;13.70;77.40;;;-142.21;100.00;112049.66;5114233;28;21000;-78
2022/01/01 04:46:01;;;;;;;16.77;13.33;;;13.70;77.10;;;-142.21;100.00;112049.66;5114364;28;20540;-78
2022/01/01 04:48:28;;;;;;;14.00;12.33;;;13.70;76.90;;;-142.21;100.00;112049.66;5111704;28;20501;-78
2022/01/01 04:50:56;;;;;;;15.83;12.87;;;13.70;76.60;;;-142.21;100.00;112049.66;5113292;28;20481;-77
2022/01/01 04:53:23;;;;;;;19.43;13.30;;;13.70;76.40;;;-142.21;100.00;112049.66;5113132;28;20484;-78
2022/01/01 04:55:52;;;;;;;15.63;13.30;;;13.80;76.70;;;-142.21;100.00;112049.66;5113509;28;20525;-78
2022/01/01 04:58:19;;;;;;;17.73;14.20;;;13.80;75.90;;;-142.21;100.00;112049.66;5112727;28;20444;-77
2022/01/01 05:00:46;;;;;;;17.13;15.10;;;13.70;75.60;;;-142.21;100.00;112049.66;5101763;28;20474;-78
2022/01/01 05:03:13;;;;;;;16.67;14.13;;;13.70;76.10;;;-142.21;100.00;112049.66;5094313;28;20526;-77
2022/01/01 05:05:41;;;;;;;19.57;15.10;;;13.70;76.20;;;-142.21;100.00;112049.66;5105796;28;20534;-78
2022/01/01 05:08:08;;;;;;;16.70;14.27;;;13.80;76.90;;;-142.21;100.00;112049.66;5102647;28;20572;-78
2022/01/01 05:10:35;;;;;;;16.43;13.73;;;13.80;77.10;;;-142.21;100.00;112049.66;5114963;28;20465;-78
2022/01/01 05:13:04;;;;;;;14.97;13.37;;;13.80;76.70;;;-142.21;100.00;112049.66;5112622;28;20488;-78
2022/01/01 05:15:32;;;;;;;18.83;15.47;;;13.80;76.70;;;-142.21;100.00;112049.66;5099348;28;20447;-78
2022/01/01 05:17:59;;;;;;;16.27;13.17;;;13.90;76.60;;;-142.21;100.00;112049.66;5103700;28;20995;-78
2022/01/01 05:20:27;;;;;;;16.00;13.40;;;13.90;76.70;;;-142.21;100.00;112049.66;5109783;28;20477;-78
2022/01/01 05:22:54;;;;;;;16.17;13.30;;;13.90;76.50;;;-142.21;100.00;112049.66;5108496;28;20538;-78
2022/01/01 05:25:21;;;;;;;14.67;12.57;;;14.00;76.50;;;-142.21;100.00;112049.66;5104365;28;20569;-78
2022/01/01 05:27:48;;;;;;;19.43;14.00;;;14.00;76.50;;;-142.21;100.00;112049.66;5111522;28;20569;-78
2022/01/01 05:30:17;;;;;;;15.17;12.23;;;14.00;76.00;;;-142.21;100.00;112049.66;5112624;28;20446;-78
2022/01/01 05:32:44;;;;;;;14.03;11.63;;;14.00;75.70;;;-142.21;100.00;112049.66;5099474;28;20570;-77
2022/01/01 05:35:12;;;;;;;13.60;11.77;;;14.00;75.60;;;-142.21;100.00;112049.66;5112543;28;20446;-78
2022/01/01 05:37:39;;;;;;;13.87;11.83;;;14.00;75.40;;;-142.21;100.00;112049.66;5105950;28;20503;-78
2022/01/01 05:40:08;;;;;;;12.33;11.03;;;13.90;75.00;;;-142.21;100.00;112049.66;5110012;28;20481;-78
2022/01/01 05:42:35;;;;;;;13.77;10.53;;;13.90;75.10;;;-142.21;100.00;112049.66;5109069;28;20478;-78
2022/01/01 05:45:02;;;;;;;13.60;11.57;;;13.90;75.00;;;-142.21;100.00;112049.66;5082215;28;20556;-78
2022/01/01 05:47:32;;;;;;;13.73;12.30;;;13.90;74.80;;;-142.21;100.00;112049.66;5096623;28;20971;-78
2022/01/01 05:49:59;;;;;;;12.80;10.97;;;13.80;74.40;;;-142.21;100.00;112049.66;5108788;28;20449;-78
2022/01/01 05:52:27;;;;;;;15.27;11.67;;;13.80;74.60;;;-142.21;100.00;112049.66;5102806;28;20529;-78
2022/01/01 05:54:54;;;;;;;15.07;12.53;;;13.70;74.80;;;-142.21;100.00;112049.66;5102951;28;20913;-78
2022/01/01 05:57:21;;;;;;;15.80;11.90;;;13.70;75.00;;;-142.21;100.00;112049.66;5109738;28;20481;-77
2022/01/01 05:59:48;;;;;;;13.07;11.73;;;13.60;75.20;;;-142.21;100.00;112049.66;5098900;28;20442;-77
2022/01/01 06:02:16;;;;;;;14.40;12.63;;;13.70;75.30;;;-142.21;100.00;112049.66;5113438;28;20474;-78
2022/01/01 06:04:54;;;;;;;13.30;11.53;;;13.60;75.10;;;-142.21;100.00;112049.66;5102833;28;20471;-78
2022/01/01 06:07:21;;;;;;;13.27;11.87;;;13.60;75.10;;;-142.21;100.00;112049.66;5113438;28;21012;-77
2022/01/01 06:09:49;;;;;;;13.33;11.43;;;13.60;74.80;;;-142.21;100.00;112049.66;5113712;28;20453;-77
2022/01/01 06:12:17;;;;;;;13.73;12.13;;;13.60;75.30;;;-142.21;100.00;112049.66;5101672;28;20450;-77
2022/01/01 06:14:44;;;;;;;14.13;12.40;;;13.60;75.10;;;-142.21;100.00;112049.66;5108005;28;20453;-78
2022/01/01 06:17:11;;;;;;;14.13;12.43;;;13.50;75.50;;;-142.21;100.00;112049.66;5113575;28;20494;-77
2022/01/01 06:19:38;;;;;;;13.23;11.83;;;13.60;75.30;;;-142.21;100.00;112049.66;5098188;28;20968;-77
2022/01/01 06:22:07;;;;;;;13.80;12.43;;;13.60;75.40;;;-142.21;100.00;112049.66;5094877;28;20451;-78
2022/01/01 06:24:34;;;;;;;17.23;13.17;;;13.70;75.10;;;-142.21;100.00;112049.66;5112669;28;20492;-77
2022/01/01 06:27:01;;;;;;;15.07;12.53;;;13.70;74.90;;;-142.21;100.00;112049.66;5112190;28;20524;-78
2022/01/01 06:29:29;;;;;;;14.67;13.10;;;13.60;75.20;;;-142.21;100.00;112049.66;5111192;28;20951;-77
2022/01/01 06:31:56;;;;;;;15.40;12.83;;;13.60;75.40;;;-142.21;100.00;112049.66;5112521;28;20477;-78
2022/01/01 06:34:23;;;;;;;17.40;13.53;;;13.60;75.60;;;-142.21;100.00;112049.66;5108760;28;20472;-77
2022/01/01 06:36:51;;;;;;;15.60;12.63;;;13.70;75.40;;;-142.21;100.00;112049.66;5111012;28;20445;-78
2022/01/01 06:39:20;;;;;;;16.27;13.40;;;13.70;75.20;;;-142.21;100.00;112049.66;5111540;28;20770;-78
2022/01/01 06:41:47;;;;;;;17.83;13.07;;;13.60;75.00;;;-142.21;100.00;112049.66;5111587;28;20445;-78
2022/01/01 06:44:14;;;;;;;16.00;13.43;;;13.60;75.20;;;-142.21;100.00;112049.66;5111292;28;20556;-77
2022/01/01 06:46:41;;;;;;;14.80;12.97;;;13.60;75.00;;;-142.21;100.00;112049.66;5112586;28;20488;-77
2022/01/01 06:49:08;;;;;;;15.33;12.70;;;13.50;75.20;;;-142.21;100.00;112049.66;5110184;28;20530;-77
2022/01/01 06:51:36;;;;;;;14.60;12.80;;;13.40;75.70;;;-142.21;100.00;112049.66;5111601;28;20499;-78
2022/01/01 06:54:03;;;;;;;16.33;13.07;;;13.40;75.80;;;-142.21;100.00;112049.66;5101253;28;20450;-78
2022/01/01 06:56:33;;;;;;;15.33;13.30;;;13.30;75.80;;;-142.21;100.00;112049.66;5112254;28;20929;-78
2022/01/01 06:59:00;;;;;;;16.10;13.10;;;13.30;75.80;;;-142.21;100.00;112049.66;5111339;28;20496;-78
2022/01/01 07:01:27;;;;;;;15.30;12.57;;;13.20;75.90;;;-142.21;100.00;112049.66;5101612;28;20482;-77
2022/01/01 07:03:54;;;;;;;15.50;13.07;;;13.20;76.00;;;-142.21;100.00;112049.66;5107566;28;20870;-77
2022/01/01 07:06:21;;;;;;;15.60;12.23;;;13.20;76.00;;;-142.21;100.00;112049.66;5106024;28;20470;-78
2022/01/01 07:08:48;;;;;;;14.93;12.97;;;13.10;76.30;;;-142.21;100.00;112049.66;5112427;28;20570;-76
2022/01/01 07:11:16;;;;;;;13.33;11.93;;;13.10;76.10;;;-142.21;100.00;112049.66;5109894;28;20485;-76
2022/01/01 07:13:44;;;;;;;13.27;11.87;;;13.10;76.00;;;-142.21;100.00;112049.66;5105970;28;20478;-77
2022/01/01 07:16:12;;;;;;;15.00;13.40;;;13.20;75.90;;;-142.21;100.00;112049.66;5101596;28;20538;-78
2022/01/01 07:18:39;;;;;;;15.43;12.57;;;13.10;75.80;;;-142.21;100.00;112049.66;5102250;28;20465;-77
2022/01/01 07:21:06;;;;;;;19.60;14.17;;;13.00;75.90;;;-142.21;100.00;112049.66;5108843;28;20485;-76
2022/01/01 07:23:33;;;;;;;14.93;12.60;;;13.00;75.80;;;-142.21;100.00;112049.66;5111441;28;20442;-76
2022/01/01 07:26:00;;;;;;;13.57;12.13;;;13.10;75.60;;;-142.21;100.00;112049.66;5111874;28;20533;-76
2022/01/01 07:28:28;;;;;;;14.73;12.27;;;13.10;75.40;;;-142.21;100.00;112049.66;5104968;28;20565;-76
2022/01/01 07:30:57;;;;;;;13.47;11.93;;;13.10;75.40;;;-142.21;100.00;112049.66;5111005;28;20477;-76
2022/01/01 07:33:24;;;;;;;13.60;11.93;;;13.20;75.60;;;-142.21;100.00;112049.66;5104543;28;20460;-77
2022/01/01 07:35:53;;;;;;;15.03;13.17;;;13.20;75.50;;;-142.21;100.00;112049.66;5111326;28;20528;-77
2022/01/01 07:38:22;;;;;;;15.93;12.77;;;13.20;75.30;;;-142.21;100.00;112049.66;5110172;28;20446;-77
2022/01/01 07:40:49;;;;;;;14.57;12.63;;;13.30;75.00;;;-142.21;100.00;112049.66;5111291;28;20453;-77
2022/01/01 07:43:19;;;;;;;15.30;11.60;;;13.30;75.10;;;-142.21;100.00;112049.66;5096809;28;20846;-77
2022/01/01 07:45:47;;;;;;;14.63;12.90;;;13.30;75.30;;;-142.21;100.00;112049.66;5098449;28;20446;-77
2022/01/01 07:48:16;;;;;;;14.93;13.33;;;13.50;75.10;;;-142.21;100.00;112049.66;5112132;28;20527;-77
2022/01/01 07:50:43;;;;;;;15.40;12.40;;;13.60;74.50;;;-142.21;100.00;112049.66;5098224;28;20480;-78
2022/01/01 07:53:10;;;;;;;15.77;13.03;;;13.60;74.60;;;-142.21;100.00;112049.66;5106995;28;20445;-77
2022/01/01 07:55:38;;;;;;;13.83;12.30;;;13.60;74.70;;;-142.21;100.00;112049.66;5110814;28;20450;-79
2022/01/01 07:58:06;;;;;;;14.50;12.47;;;13.60;74.60;;;-142.21;100.00;112049.66;5101469;28;20501;-77
2022/01/01 08:00:33;;;;;;;15.13;11.87;;;13.70;74.40;;;-142.21;100.00;112049.66;5109991;28;20445;-77
2022/01/01 08:03:00;;;;;;;15.53;12.40;;;13.60;74.20;;;-142.21;100.00;112049.66;5109047;28;20481;-77
2022/01/01 08:05:29;;;;;;;13.50;12.10;;;13.60;74.30;;;-142.21;100.00;112049.66;5099162;28;20532;-78
2022/01/01 08:07:56;;;;;;;15.20;13.20;;;13.70;74.80;;;-142.21;100.00;112049.66;5111222;28;20572;-78
2022/01/01 08:10:23;;;;;;;14.53;12.97;;;13.70;74.40;;;-142.21;100.00;112049.66;5108508;28;20443;-78
2022/01/01 08:12:51;;;;;;;14.80;12.67;;;13.70;74.40;;;-142.21;100.00;112049.66;5098673;28;21088;-78
2022/01/01 08:15:18;;;;;;;14.87;11.93;;;13.70;74.50;;;-142.21;100.00;112049.66;5108470;28;20529;-77
2022/01/01 08:17:45;;;;;;;13.93;11.93;;;13.80;74.70;;;-142.21;100.00;112049.66;5101396;28;20450;-77
2022/01/01 08:20:14;;;;;;;14.00;12.20;;;13.80;74.70;;;-142.21;100.00;112049.66;5090836;28;20438;-77
2022/01/01 08:22:42;;;;;;;14.83;13.27;;;13.90;74.80;;;-142.21;100.00;112049.66;5102887;28;20445;-77
2022/01/01 08:25:10;;;;;;;14.57;11.57;;;13.90;74.30;;;-142.21;100.00;112049.66;5114376;28;20491;-78
2022/01/01 08:27:37;;;;;;;13.10;11.17;;;14.00;74.00;;;-142.21;100.00;112049.66;5113981;28;20572;-78
2022/01/01 08:30:06;;;;;;;13.23;11.07;;;14.00;73.50;;;-142.21;100.00;112049.66;5097913;28;20449;-78
2022/01/01 08:32:34;;;;;;;11.97;10.77;;;14.00;73.40;;;-142.21;100.00;112049.66;5108247;28;20455;-77
2022/01/01 08:35:01;;;;;;;13.20;10.67;;;14.00;73.00;;;-142.21;100.00;112049.66;5095277;28;20865;-77
2022/01/01 08:37:28;;;;;;;12.63;11.33;;;14.00;73.10;;;-142.21;100.00;112049.66;5105302;28;20772;-78
2022/01/01 08:39:57;;;;;;;11.47;10.30;;;14.00;73.20;;;-142.21;100.00;112049.66;5101752;28;20962;-77
2022/01/01 08:42:25;;;;;;;12.60;10.67;;;14.00;72.60;;;-142.21;100.00;112049.66;5098977;28;20457;-77
2022/01/01 08:44:52;;;;;;;11.83;10.73;;;13.90;73.10;;;-142.21;100.00;112049.66;5091408;28;20473;-77
2022/01/01 08:47:24;;;;;;;11.20;10.10;;;14.00;72.90;;;-142.21;100.00;112049.66;5087068;28;20449;-77
2022/01/01 08:49:54;;;;;;;11.40;10.20;;;14.00;72.90;;;-142.21;100.00;112049.66;5094491;28;20476;-77
2022/01/01 08:52:22;;;;;;;12.70;11.40;;;14.00;73.00;;;-142.21;100.00;112049.66;5093348;28;20504;-77
2022/01/01 08:54:50;;;;;;;11.63;10.10;;;14.00;73.00;;;-142.21;100.00;112049.66;5092109;28;20959;-78
2022/01/01 08:57:19;;;;;;;12.20;11.00;;;14.10;73.10;;;-142.21;100.00;112049.66;5093255;28;20446;-77
2022/01/01 08:59:46;;;;;;;14.90;12.13;;;14.10;72.80;;;-142.21;100.00;112049.66;5091466;28;20525;-77
2022/01/01 09:02:13;;;;;;;12.33;10.73;;;14.10;72.50;;;-142.21;100.00;112049.66;5094064;28;20457;-78
2022/01/01 09:04:40;;;;;;;11.77;10.57;;;14.10;72.50;;;-142.21;100.00;112049.66;5093429;28;20443;-77
2022/01/01 09:07:07;;;;;;;11.00;9.73;;;14.20;72.20;;;-142.21;100.00;112049.66;5088954;28;20512;-77
2022/01/01 09:09:35;;;;;;;11.50;9.67;;;14.20;72.20;;;-142.21;100.00;112049.66;5081964;28;20506;-77
2022/01/01 09:12:03;;;;;;;10.67;9.03;;;14.20;72.00;;;-142.21;100.00;112049.66;5093453;28;20443;-77
2022/01/01 09:14:32;;;;;;;10.70;9.60;;;14.20;71.40;;;-142.21;100.00;112049.66;5092974;28;20508;-77
2022/01/01 09:16:59;;;;;;;10.60;9.20;;;14.10;71.50;;;-142.21;100.00;112049.66;5093025;28;20542;-77
2022/01/01 09:19:26;;;;;;;11.80;9.67;;;14.10;72.20;;;-142.21;100.00;112049.66;5093610;28;20868;-77
2022/01/01 09:21:53;;;;;;;10.40;9.30;;;14.10;71.50;;;-142.21;100.00;112049.66;5079259;28;20854;-77
2022/01/01 09:24:21;;;;;;;10.47;9.47;;;14.10;71.40;;;-142.21;100.00;112049.66;5092868;28;20474;-78
2022/01/01 09:26:48;;;;;;;11.33;10.13;;;14.00;71.70;;;-142.21;100.00;112049.66;5093422;28;20877;-78
2022/01/01 09:29:15;;;;;;;9.90;8.83;;;14.10;71.40;;;-142.21;100.00;112049.66;5092820;28;20482;-77
2022/01/01 09:31:50;;;;;;;10.23;9.13;;;14.20;71.30;;;-142.21;100.00;112049.66;5076399;28;20918;-78
2022/01/01 09:34:18;;;;;;;9.97;8.97;;;14.40;70.70;;;-142.21;100.00;112049.66;5073904;28;20943;-78
2022/01/01 09:36:46;;;;;;;10.43;9.17;;;14.60;70.30;;;-142.21;100.00;112049.66;5073845;28;20518;-78
2022/01/01 09:39:13;;;;;;;11.07;9.73;;;14.80;69.90;;;-142.21;100.00;112049.66;5073401;28;20454;-77
2022/01/01 09:41:42;;;;;;;10.50;9.50;;;15.00;69.40;;;-142.21;100.00;112049.66;5073882;28;20526;-78
2022/01/01 09:44:15;;;;;;;11.33;9.30;;;15.20;69.30;;;-142.21;100.00;112049.66;5082333;28;20482;-78
2022/01/01 09:46:44;;;;;;;10.53;9.53;;;15.30;68.10;;;-142.21;100.00;112049.66;5093945;28;20485;-78